sensor_id;sensor_type;location;lat;lon;timestamp;pressure;altitude;pressure_sealevel;temperature;humidity
29385;BME280;16367;48.736;9.218;2022-10-14T00:01:08;-23557.03;;;12.31;100.00
29385;BME280;16367;48.736;9.218;2022-10-14T00:03:11;-23557.81;;;12.33;100.00
29385;BME280;16367;48.736;9.218;2022-10-14T00:05:13;-23560.03;;;12.40;100.00
29385;BME280;16367;48.736;9.218;2022-10-14T00:07:16;-23558.59;;;12.36;100.00
29385;BME280;16367;48.736;9.218;2022-10-14T00:09:21;-23557.97;;;12.34;100.00
29385;BME280;16367;48.736;9.218;2022-10-14T00:11:25;-23557.03;;;12.31;100.00
29385;BME280;16367;48.736;9.218;2022-10-14T00:13:28;-23557.50;;;12.32;100.00
29385;BME280;16367;48.736;9.218;2022-10-14T00:15:30;-23558.13;;;12.34;100.00
29385;BME280;16367;48.736;9.218;2022-10-14T00:17:33;-23558.75;;;12.36;100.00
29385;BME280;16367;48.736;9.218;2022-10-14T00:19:37;-23556.53;;;12.29;100.00
29385;BME280;16367;48.736;9.218;2022-10-14T00:21:42;-23555.75;;;12.27;100.00
29385;BME280;16367;48.736;9.218;2022-10-14T00:23:45;-23557.50;;;12.32;100.00
29385;BME280;16367;48.736;9.218;2022-10-14T00:25:49;-23556.22;;;12.28;100.00
29385;BME280;16367;48.736;9.218;2022-10-14T00:27:52;-23554.97;;;12.24;100.00
29385;BME280;16367;48.736;9.218;2022-10-14T00:29:55;-23562.25;;;12.47;100.00
29385;BME280;16367;48.736;9.218;2022-10-14T00:31:57;-23560.81;;;12.43;100.00
29385;BME280;16367;48.736;9.218;2022-10-14T00:34:00;-23558.13;;;12.34;100.00
29385;BME280;16367;48.736;9.218;2022-10-14T00:36:05;-23558.13;;;12.34;100.00
29385;BME280;16367;48.736;9.218;2022-10-14T00:38:08;-23556.53;;;12.29;100.00
29385;BME280;16367;48.736;9.218;2022-10-14T00:40:11;-23554.66;;;12.23;100.00
29385;BME280;16367;48.736;9.218;2022-10-14T00:42:15;-23556.06;;;12.28;100.00
29385;BME280;16367;48.736;9.218;2022-10-14T00:46:58;-23559.06;;;12.37;100.00
29385;BME280;16367;48.736;9.218;2022-10-14T00:49:05;-23557.81;;;12.33;100.00
29385;BME280;16367;48.736;9.218;2022-10-14T00:51:09;-23557.50;;;12.32;100.00
29385;BME280;16367;48.736;9.218;2022-10-14T00:53:12;-23556.53;;;12.29;100.00
29385;BME280;16367;48.736;9.218;2022-10-14T00:55:17;-23557.50;;;12.32;100.00
29385;BME280;16367;48.736;9.218;2022-10-14T00:57:22;-23556.53;;;12.29;100.00
29385;BME280;16367;48.736;9.218;2022-10-14T00:59:26;-23557.97;;;12.34;100.00
29385;BME280;16367;48.736;9.218;2022-10-14T01:01:29;-23555.59;;;12.26;100.00
29385;BME280;16367;48.736;9.218;2022-10-14T01:03:32;-23555.28;;;12.25;100.00
29385;BME280;16367;48.736;9.218;2022-10-14T01:05:40;-23554.66;;;12.23;100.00
29385;BME280;16367;48.736;9.218;2022-10-14T01:07:58;-23553.22;;;12.19;100.00
29385;BME280;16367;48.736;9.218;2022-10-14T01:10:08;-23556.88;;;12.30;100.00
29385;BME280;16367;48.736;9.218;2022-10-14T01:12:20;-23553.69;;;12.20;100.00
29385;BME280;16367;48.736;9.218;2022-10-14T01:14:36;-23554.81;;;12.24;100.00
29385;BME280;16367;48.736;9.218;2022-10-14T01:16:46;-23553.06;;;12.18;100.00
29385;BME280;16367;48.736;9.218;2022-10-14T01:19:13;-23554.66;;;12.23;100.00
29385;BME280;16367;48.736;9.218;2022-10-14T01:21:24;-23560.97;;;12.43;100.00
29385;BME280;16367;48.736;9.218;2022-10-14T01:26:33;-23554.50;;;12.23;100.00
29385;BME280;16367;48.736;9.218;2022-10-14T01:28:48;-23557.81;;;12.33;100.00
29385;BME280;16367;48.736;9.218;2022-10-14T01:31:00;-23555.59;;;12.26;100.00
29385;BME280;16367;48.736;9.218;2022-10-14T01:33:08;-23554.34;;;12.22;100.00
29385;BME280;16367;48.736;9.218;2022-10-14T01:35:20;-23552.75;;;12.17;100.00
29385;BME280;16367;48.736;9.218;2022-10-14T01:37:27;-23553.22;;;12.19;100.00
29385;BME280;16367;48.736;9.218;2022-10-14T01:39:34;-23555.91;;;12.27;100.00
29385;BME280;16367;48.736;9.218;2022-10-14T01:41:42;-23554.50;;;12.23;100.00
29385;BME280;16367;48.736;9.218;2022-10-14T01:43:48;-23552.44;;;12.16;100.00
29385;BME280;16367;48.736;9.218;2022-10-14T01:45:53;-23553.69;;;12.20;100.00
29385;BME280;16367;48.736;9.218;2022-10-14T01:47:59;-23553.22;;;12.19;100.00
29385;BME280;16367;48.736;9.218;2022-10-14T01:50:08;-23558.13;;;12.34;100.00
29385;BME280;16367;48.736;9.218;2022-10-14T01:52:15;-23555.13;;;12.25;100.00
29385;BME280;16367;48.736;9.218;2022-10-14T01:54:23;-23553.84;;;12.21;100.00
29385;BME280;16367;48.736;9.218;2022-10-14T01:56:29;-23557.19;;;12.31;100.00
29385;BME280;16367;48.736;9.218;2022-10-14T01:58:33;-23559.72;;;12.39;100.00
29385;BME280;16367;48.736;9.218;2022-10-14T02:00:37;-23555.91;;;12.27;100.00
29385;BME280;16367;48.736;9.218;2022-10-14T02:02:40;-23557.34;;;12.32;100.00
29385;BME280;16367;48.736;9.218;2022-10-14T02:04:44;-23555.75;;;12.27;100.00
29385;BME280;16367;48.736;9.218;2022-10-14T02:06:50;-23557.81;;;12.33;100.00
29385;BME280;16367;48.736;9.218;2022-10-14T02:09:02;-23557.50;;;12.32;100.00
29385;BME280;16367;48.736;9.218;2022-10-14T02:11:11;-23558.28;;;12.35;100.00
29385;BME280;16367;48.736;9.218;2022-10-14T02:13:28;-23557.50;;;12.32;100.00
29385;BME280;16367;48.736;9.218;2022-10-14T02:15:41;-23557.81;;;12.33;100.00
29385;BME280;16367;48.736;9.218;2022-10-14T02:17:52;-23556.72;;;12.30;100.00
29385;BME280;16367;48.736;9.218;2022-10-14T02:20:02;-23558.13;;;12.34;100.00
29385;BME280;16367;48.736;9.218;2022-10-14T02:22:09;-23559.88;;;12.40;100.00
29385;BME280;16367;48.736;9.218;2022-10-14T02:24:19;-23561.28;;;12.44;100.00
29385;BME280;16367;48.736;9.218;2022-10-14T02:26:25;-23560.81;;;12.43;100.00
29385;BME280;16367;48.736;9.218;2022-10-14T02:28:30;-23558.13;;;12.34;100.00
29385;BME280;16367;48.736;9.218;2022-10-14T02:30:37;-23557.97;;;12.34;100.00
29385;BME280;16367;48.736;9.218;2022-10-14T02:32:43;-23558.44;;;12.35;100.00
29385;BME280;16367;48.736;9.218;2022-10-14T02:34:51;-23558.28;;;12.35;100.00
29385;BME280;16367;48.736;9.218;2022-10-14T02:36:57;-23561.78;;;12.46;100.00
29385;BME280;16367;48.736;9.218;2022-10-14T02:39:02;-23560.34;;;12.41;100.00
29385;BME280;16367;48.736;9.218;2022-10-14T02:41:07;-23558.75;;;12.36;100.00
29385;BME280;16367;48.736;9.218;2022-10-14T02:43:13;-23557.81;;;12.33;100.00
29385;BME280;16367;48.736;9.218;2022-10-14T02:45:16;-23556.38;;;12.29;100.00
29385;BME280;16367;48.736;9.218;2022-10-14T02:47:20;-23558.75;;;12.36;100.00
29385;BME280;16367;48.736;9.218;2022-10-14T02:49:23;-23558.44;;;12.35;100.00
29385;BME280;16367;48.736;9.218;2022-10-14T02:51:25;-23558.75;;;12.36;100.00
29385;BME280;16367;48.736;9.218;2022-10-14T02:53:30;-23555.28;;;12.25;100.00
29385;BME280;16367;48.736;9.218;2022-10-14T02:55:32;-23552.44;;;12.16;100.00
29385;BME280;16367;48.736;9.218;2022-10-14T02:57:35;-23553.53;;;12.20;100.00
29385;BME280;16367;48.736;9.218;2022-10-14T02:59:38;-23555.44;;;12.26;100.00
29385;BME280;16367;48.736;9.218;2022-10-14T03:01:41;-23558.13;;;12.34;100.00
29385;BME280;16367;48.736;9.218;2022-10-14T03:03:43;-23556.22;;;12.28;100.00
29385;BME280;16367;48.736;9.218;2022-10-14T03:05:46;-23554.34;;;12.22;100.00
29385;BME280;16367;48.736;9.218;2022-10-14T03:07:49;-23552.75;;;12.17;100.00
29385;BME280;16367;48.736;9.218;2022-10-14T03:09:53;-23552.75;;;12.17;100.00
29385;BME280;16367;48.736;9.218;2022-10-14T03:11:56;-23551.81;;;12.14;100.00
29385;BME280;16367;48.736;9.218;2022-10-14T03:13:58;-23554.66;;;12.23;100.00
29385;BME280;16367;48.736;9.218;2022-10-14T03:16:01;-23553.84;;;12.21;100.00
29385;BME280;16367;48.736;9.218;2022-10-14T03:18:04;-23552.28;;;12.16;100.00
29385;BME280;16367;48.736;9.218;2022-10-14T03:20:07;-23553.06;;;12.18;100.00
29385;BME280;16367;48.736;9.218;2022-10-14T03:22:10;-23550.53;;;12.10;100.00
29385;BME280;16367;48.736;9.218;2022-10-14T03:24:12;-23550.22;;;12.09;100.00
29385;BME280;16367;48.736;9.218;2022-10-14T03:26:17;-23551.81;;;12.14;100.00
29385;BME280;16367;48.736;9.218;2022-10-14T03:28:19;-23553.06;;;12.18;100.00
29385;BME280;16367;48.736;9.218;2022-10-14T03:30:22;-23557.03;;;12.31;100.00
29385;BME280;16367;48.736;9.218;2022-10-14T03:32:25;-23548.47;;;12.04;100.00
29385;BME280;16367;48.736;9.218;2022-10-14T03:34:27;-23550.06;;;12.09;100.00
29385;BME280;16367;48.736;9.218;2022-10-14T03:36:30;-23554.34;;;12.22;100.00
29385;BME280;16367;48.736;9.218;2022-10-14T03:38:33;-23549.59;;;12.07;100.00
29385;BME280;16367;48.736;9.218;2022-10-14T03:40:35;-23550.22;;;12.09;100.00
29385;BME280;16367;48.736;9.218;2022-10-14T03:42:40;-23548.00;;;12.02;100.00
29385;BME280;16367;48.736;9.218;2022-10-14T03:44:42;-23550.22;;;12.09;100.00
29385;BME280;16367;48.736;9.218;2022-10-14T03:46:46;-23555.91;;;12.27;100.00
29385;BME280;16367;48.736;9.218;2022-10-14T03:48:49;-23552.75;;;12.17;100.00
29385;BME280;16367;48.736;9.218;2022-10-14T03:50:51;-23551.00;;;12.12;100.00
29385;BME280;16367;48.736;9.218;2022-10-14T03:52:54;-23561.59;;;12.45;100.00
29385;BME280;16367;48.736;9.218;2022-10-14T03:54:57;-23554.34;;;12.22;100.00
29385;BME280;16367;48.736;9.218;2022-10-14T03:56:59;-23554.66;;;12.23;100.00
29385;BME280;16367;48.736;9.218;2022-10-14T03:59:04;-23549.59;;;12.07;100.00
29385;BME280;16367;48.736;9.218;2022-10-14T04:01:06;-23547.06;;;11.99;100.00
29385;BME280;16367;48.736;9.218;2022-10-14T04:03:09;-23549.28;;;12.06;100.00
29385;BME280;16367;48.736;9.218;2022-10-14T04:05:12;-23547.38;;;12.00;100.00
29385;BME280;16367;48.736;9.218;2022-10-14T04:07:14;-23543.25;;;11.87;100.00
29385;BME280;16367;48.736;9.218;2022-10-14T04:09:17;-23540.72;;;11.79;100.00
29385;BME280;16367;48.736;9.218;2022-10-14T04:11:20;-23547.53;;;12.01;100.00
29385;BME280;16367;48.736;9.218;2022-10-14T04:13:23;-23554.03;;;12.21;100.00
29385;BME280;16367;48.736;9.218;2022-10-14T04:15:27;-23546.44;;;11.97;100.00
29385;BME280;16367;48.736;9.218;2022-10-14T04:17:30;-23543.88;;;11.89;100.00
29385;BME280;16367;48.736;9.218;2022-10-14T04:19:33;-23546.09;;;11.96;100.00
29385;BME280;16367;48.736;9.218;2022-10-14T04:21:36;-23543.75;;;11.88;100.00
29385;BME280;16367;48.736;9.218;2022-10-14T04:23:39;-23545.47;;;11.94;100.00
29385;BME280;16367;48.736;9.218;2022-10-14T04:25:41;-23548.63;;;12.04;100.00
29385;BME280;16367;48.736;9.218;2022-10-14T04:27:44;-23546.91;;;11.98;100.00
29385;BME280;16367;48.736;9.218;2022-10-14T04:29:47;-23539.31;;;11.74;100.00
29385;BME280;16367;48.736;9.218;2022-10-14T04:31:51;-23542.00;;;11.83;100.00
29385;BME280;16367;48.736;9.218;2022-10-14T04:33:54;-23542.00;;;11.83;100.00
29385;BME280;16367;48.736;9.218;2022-10-14T04:35:57;-23544.69;;;11.91;100.00
29385;BME280;16367;48.736;9.218;2022-10-14T04:38:00;-23544.84;;;11.92;100.00
29385;BME280;16367;48.736;9.218;2022-10-14T04:40:03;-23544.84;;;11.92;100.00
29385;BME280;16367;48.736;9.218;2022-10-14T04:42:06;-23544.22;;;11.90;100.00
29385;BME280;16367;48.736;9.218;2022-10-14T04:44:09;-23544.38;;;11.90;100.00
29385;BME280;16367;48.736;9.218;2022-10-14T04:46:12;-23545.78;;;11.95;100.00
29385;BME280;16367;48.736;9.218;2022-10-14T04:48:16;-23551.00;;;12.12;100.00
29385;BME280;16367;48.736;9.218;2022-10-14T04:50:19;-23552.91;;;12.18;100.00
29385;BME280;16367;48.736;9.218;2022-10-14T04:52:22;-23547.22;;;12.00;100.00
29385;BME280;16367;48.736;9.218;2022-10-14T04:54:25;-23546.25;;;11.96;100.00
29385;BME280;16367;48.736;9.218;2022-10-14T04:56:28;-23542.00;;;11.83;100.00
29385;BME280;16367;48.736;9.218;2022-10-14T04:58:30;-23539.16;;;11.74;100.00
29385;BME280;16367;48.736;9.218;2022-10-14T05:00:33;-23538.84;;;11.73;100.00
29385;BME280;16367;48.736;9.218;2022-10-14T05:02:36;-23542.31;;;11.84;100.00
29385;BME280;16367;48.736;9.218;2022-10-14T05:04:40;-23542.63;;;11.85;100.00
29385;BME280;16367;48.736;9.218;2022-10-14T05:06:42;-23539.47;;;11.75;100.00
29385;BME280;16367;48.736;9.218;2022-10-14T05:08:45;-23537.09;;;11.67;100.00
29385;BME280;16367;48.736;9.218;2022-10-14T05:10:48;-23540.72;;;11.79;100.00
29385;BME280;16367;48.736;9.218;2022-10-14T05:12:51;-23539.16;;;11.74;100.00
29385;BME280;16367;48.736;9.218;2022-10-14T05:14:53;-23539.31;;;11.74;100.00
29385;BME280;16367;48.736;9.218;2022-10-14T05:16:56;-23538.50;;;11.72;100.00
29385;BME280;16367;48.736;9.218;2022-10-14T05:18:59;-23536.94;;;11.67;100.00
29385;BME280;16367;48.736;9.218;2022-10-14T05:21:03;-22095.50;;;11.76;100.00
29385;BME280;16367;48.736;9.218;2022-10-14T05:23:06;-22841.06;;;11.73;100.00
29385;BME280;16367;48.736;9.218;2022-10-14T05:25:08;-19716.22;;;11.75;100.00
29385;BME280;16367;48.736;9.218;2022-10-14T05:27:11;-22128.69;;;11.86;100.00
29385;BME280;16367;48.736;9.218;2022-10-14T05:29:14;-22084.06;;;11.80;100.00
29385;BME280;16367;48.736;9.218;2022-10-14T05:31:16;-23539.63;;;11.75;100.00
29385;BME280;16367;48.736;9.218;2022-10-14T05:33:19;-22669.69;;;11.90;100.00
29385;BME280;16367;48.736;9.218;2022-10-14T05:35:22;-23538.19;;;11.71;100.00
29385;BME280;16367;48.736;9.218;2022-10-14T05:37:46;-22672.25;;;11.73;100.00
29385;BME280;16367;48.736;9.218;2022-10-14T05:39:48;-23539.16;;;11.74;100.00
29385;BME280;16367;48.736;9.218;2022-10-14T05:41:51;-21623.88;;;11.85;100.00
29385;BME280;16367;48.736;9.218;2022-10-14T05:43:54;-23536.59;;;11.66;100.00
29385;BME280;16367;48.736;9.218;2022-10-14T05:45:56;-21526.25;;;11.70;100.00
29385;BME280;16367;48.736;9.218;2022-10-14T05:47:59;-17406.88;;;11.78;100.00
29385;BME280;16367;48.736;9.218;2022-10-14T05:50:02;-15792.22;;;11.88;100.00
29385;BME280;16367;48.736;9.218;2022-10-14T05:52:05;-16116.53;;;11.92;100.00
29385;BME280;16367;48.736;9.218;2022-10-14T05:54:09;-23547.53;;;12.01;100.00
29385;BME280;16367;48.736;9.218;2022-10-14T05:56:12;-23552.13;;;12.15;100.00
29385;BME280;16367;48.736;9.218;2022-10-14T05:58:15;-23553.38;;;12.19;100.00
29385;BME280;16367;48.736;9.218;2022-10-14T06:00:18;-23554.66;;;12.23;100.00
29385;BME280;16367;48.736;9.218;2022-10-14T06:02:26;-23550.84;;;12.11;100.00
29385;BME280;16367;48.736;9.218;2022-10-14T06:04:29;-23547.84;;;12.02;100.00
29385;BME280;16367;48.736;9.218;2022-10-14T06:06:31;-23553.38;;;12.19;100.00
29385;BME280;16367;48.736;9.218;2022-10-14T06:08:34;-23550.53;;;12.10;100.00
29385;BME280;16367;48.736;9.218;2022-10-14T06:10:38;-23547.69;;;12.01;100.00
29385;BME280;16367;48.736;9.218;2022-10-14T06:12:40;-23547.06;;;11.99;100.00
29385;BME280;16367;48.736;9.218;2022-10-14T06:14:43;-23555.59;;;12.26;100.00
29385;BME280;16367;48.736;9.218;2022-10-14T06:16:48;-23558.44;;;12.35;100.00
29385;BME280;16367;48.736;9.218;2022-10-14T06:18:51;-23555.75;;;12.27;100.00
29385;BME280;16367;48.736;9.218;2022-10-14T06:20:55;-23554.34;;;12.22;100.00
29385;BME280;16367;48.736;9.218;2022-10-14T06:22:57;-23558.13;;;12.34;100.00
29385;BME280;16367;48.736;9.218;2022-10-14T06:25:00;-23553.22;;;12.19;100.00
29385;BME280;16367;48.736;9.218;2022-10-14T06:27:06;-23556.88;;;12.30;100.00
29385;BME280;16367;48.736;9.218;2022-10-14T06:29:09;-23557.50;;;12.32;100.00
29385;BME280;16367;48.736;9.218;2022-10-14T06:31:12;-23549.44;;;12.07;100.00
29385;BME280;16367;48.736;9.218;2022-10-14T06:33:15;-23548.63;;;12.04;100.00
29385;BME280;16367;48.736;9.218;2022-10-14T06:35:17;-23553.69;;;12.20;100.00
29385;BME280;16367;48.736;9.218;2022-10-14T06:37:20;-23551.47;;;12.13;100.00
29385;BME280;16367;48.736;9.218;2022-10-14T06:39:23;-23563.34;;;12.51;100.00
29385;BME280;16367;48.736;9.218;2022-10-14T06:41:25;-23561.59;;;12.45;100.00
29385;BME280;16367;48.736;9.218;2022-10-14T06:43:29;-23555.28;;;12.25;100.00
29385;BME280;16367;48.736;9.218;2022-10-14T06:45:32;-23557.19;;;12.31;100.00
29385;BME280;16367;48.736;9.218;2022-10-14T06:47:35;-23553.06;;;12.18;100.00
29385;BME280;16367;48.736;9.218;2022-10-14T06:49:37;-23555.28;;;12.25;100.00
29385;BME280;16367;48.736;9.218;2022-10-14T06:51:40;-23553.38;;;12.19;100.00
29385;BME280;16367;48.736;9.218;2022-10-14T06:53:43;-23553.69;;;12.20;100.00
29385;BME280;16367;48.736;9.218;2022-10-14T06:55:45;-23558.13;;;12.34;100.00
29385;BME280;16367;48.736;9.218;2022-10-14T06:57:48;-23554.50;;;12.23;100.00
29385;BME280;16367;48.736;9.218;2022-10-14T06:59:52;-23557.97;;;12.34;100.00
29385;BME280;16367;48.736;9.218;2022-10-14T07:01:55;-23571.88;;;12.78;100.00
29385;BME280;16367;48.736;9.218;2022-10-14T07:03:58;-23567.16;;;12.63;100.00
29385;BME280;16367;48.736;9.218;2022-10-14T07:06:02;-23579.31;;;13.02;100.00
29385;BME280;16367;48.736;9.218;2022-10-14T07:08:05;-23581.84;;;13.10;100.00
29385;BME280;16367;48.736;9.218;2022-10-14T07:10:13;-23567.31;;;12.63;100.00
29385;BME280;16367;48.736;9.218;2022-10-14T07:12:15;-23561.78;;;12.46;100.00
29385;BME280;16367;48.736;9.218;2022-10-14T07:14:18;-23571.09;;;12.76;100.00
29385;BME280;16367;48.736;9.218;2022-10-14T07:16:23;-23564.94;;;12.56;100.00
29385;BME280;16367;48.736;9.218;2022-10-14T07:18:25;-23567.78;;;12.65;100.00
29385;BME280;16367;48.736;9.218;2022-10-14T07:20:28;-23563.50;;;12.51;100.00
29385;BME280;16367;48.736;9.218;2022-10-14T07:22:31;-23564.94;;;12.56;100.00
29385;BME280;16367;48.736;9.218;2022-10-14T07:24:39;-23567.94;;;12.65;100.00
29385;BME280;16367;48.736;9.218;2022-10-14T07:26:42;-23573.31;;;12.83;100.00
29385;BME280;16367;48.736;9.218;2022-10-14T07:28:44;-23569.19;;;12.69;100.00
29385;BME280;16367;48.736;9.218;2022-10-14T07:30:55;-23570.47;;;12.73;100.00
29385;BME280;16367;48.736;9.218;2022-10-14T07:32:59;-23572.53;;;12.80;100.00
29385;BME280;16367;48.736;9.218;2022-10-14T07:35:02;-23571.72;;;12.78;100.00
29385;BME280;16367;48.736;9.218;2022-10-14T07:37:05;-23574.41;;;12.86;100.00
29385;BME280;16367;48.736;9.218;2022-10-14T07:39:08;-23571.09;;;12.76;100.00
29385;BME280;16367;48.736;9.218;2022-10-14T07:41:12;-23574.41;;;12.86;100.00
29385;BME280;16367;48.736;9.218;2022-10-14T07:43:18;-23581.84;;;13.10;100.00
29385;BME280;16367;48.736;9.218;2022-10-14T07:45:21;-23581.53;;;13.09;100.00
29385;BME280;16367;48.736;9.218;2022-10-14T07:47:23;-23577.09;;;12.95;100.00
29385;BME280;16367;48.736;9.218;2022-10-14T07:49:27;-23577.25;;;12.95;100.00
29385;BME280;16367;48.736;9.218;2022-10-14T07:51:31;-23580.59;;;13.06;100.00
29385;BME280;16367;48.736;9.218;2022-10-14T07:53:35;-23580.59;;;13.06;100.00
29385;BME280;16367;48.736;9.218;2022-10-14T07:55:42;-23581.38;;;13.08;100.00
29385;BME280;16367;48.736;9.218;2022-10-14T07:57:52;-23585.66;;;13.22;100.00
29385;BME280;16367;48.736;9.218;2022-10-14T07:59:55;-23593.84;;;13.48;100.00
29385;BME280;16367;48.736;9.218;2022-10-14T08:01:57;-23588.00;;;13.29;100.00
29385;BME280;16367;48.736;9.218;2022-10-14T08:04:00;-23588.63;;;13.31;100.00
29385;BME280;16367;48.736;9.218;2022-10-14T08:06:05;-23595.91;;;13.55;100.00
29385;BME280;16367;48.736;9.218;2022-10-14T08:08:08;-23586.91;;;13.26;100.00
29385;BME280;16367;48.736;9.218;2022-10-14T08:10:11;-23589.75;;;13.35;100.00
29385;BME280;16367;48.736;9.218;2022-10-14T08:12:14;-23590.84;;;13.38;100.00
29385;BME280;16367;48.736;9.218;2022-10-14T08:14:17;-23589.75;;;13.35;100.00
29385;BME280;16367;48.736;9.218;2022-10-14T08:16:21;-23584.84;;;13.19;100.00
29385;BME280;16367;48.736;9.218;2022-10-14T08:18:24;-23589.91;;;13.35;100.00
29385;BME280;16367;48.736;9.218;2022-10-14T08:20:27;-23587.53;;;13.28;100.00
29385;BME280;16367;48.736;9.218;2022-10-14T08:22:31;-23585.66;;;13.22;100.00
29385;BME280;16367;48.736;9.218;2022-10-14T08:24:34;-23584.53;;;13.18;100.00
29385;BME280;16367;48.736;9.218;2022-10-14T08:26:38;-23586.28;;;13.24;100.00
29385;BME280;16367;48.736;9.218;2022-10-14T08:28:41;-23595.28;;;13.53;100.00
29385;BME280;16367;48.736;9.218;2022-10-14T08:30:44;-23592.75;;;13.44;100.00
29385;BME280;16367;48.736;9.218;2022-10-14T08:32:48;-23596.38;;;13.56;100.00
29385;BME280;16367;48.736;9.218;2022-10-14T08:34:51;-23596.22;;;13.56;100.00
29385;BME280;16367;48.736;9.218;2022-10-14T08:36:56;-23609.19;;;13.97;100.00
29385;BME280;16367;48.736;9.218;2022-10-14T08:39:00;-23614.88;;;14.15;100.00
29385;BME280;16367;48.736;9.218;2022-10-14T08:41:08;-23610.91;;;14.02;100.00
29385;BME280;16367;48.736;9.218;2022-10-14T08:43:23;-23625.13;;;14.48;100.00
29385;BME280;16367;48.736;9.218;2022-10-14T08:45:31;-23613.44;;;14.10;100.00
29385;BME280;16367;48.736;9.218;2022-10-14T08:47:37;-23616.28;;;14.19;100.00
29385;BME280;16367;48.736;9.218;2022-10-14T08:49:50;-23609.81;;;13.99;100.00
29385;BME280;16367;48.736;9.218;2022-10-14T08:51:57;-23616.28;;;14.19;100.00
29385;BME280;16367;48.736;9.218;2022-10-14T08:54:06;-23619.91;;;14.31;100.00
29385;BME280;16367;48.736;9.218;2022-10-14T08:56:13;-23610.59;;;14.01;100.00
29385;BME280;16367;48.736;9.218;2022-10-14T08:58:22;-23609.81;;;13.99;100.00
29385;BME280;16367;48.736;9.218;2022-10-14T09:00:32;-23618.81;;;14.28;100.00
29385;BME280;16367;48.736;9.218;2022-10-14T09:02:40;-23622.13;;;14.38;100.00
29385;BME280;16367;48.736;9.218;2022-10-14T09:04:45;-23614.22;;;14.13;100.00
29385;BME280;16367;48.736;9.218;2022-10-14T09:06:49;-23615.66;;;14.17;100.00
29385;BME280;16367;48.736;9.218;2022-10-14T09:08:56;-23631.44;;;14.68;100.00
29385;BME280;16367;48.736;9.218;2022-10-14T09:11:01;-23621.81;;;14.37;100.00
29385;BME280;16367;48.736;9.218;2022-10-14T09:13:08;-23634.13;;;14.76;100.00
29385;BME280;16367;48.736;9.218;2022-10-14T09:15:18;-23644.69;;;15.10;100.00
29385;BME280;16367;48.736;9.218;2022-10-14T09:17:25;-23639.00;;;14.92;100.00
29385;BME280;16367;48.736;9.218;2022-10-14T09:19:34;-23642.97;;;15.05;100.00
29385;BME280;16367;48.736;9.218;2022-10-14T09:21:43;-23645.47;;;15.13;100.00
29385;BME280;16367;48.736;9.218;2022-10-14T09:23:57;-23641.53;;;15.00;100.00
29385;BME280;16367;48.736;9.218;2022-10-14T09:26:06;-23650.06;;;15.27;100.00
29385;BME280;16367;48.736;9.218;2022-10-14T09:28:10;-23658.25;;;15.53;100.00
29385;BME280;16367;48.736;9.218;2022-10-14T09:30:14;-23662.22;;;15.66;100.00
29385;BME280;16367;48.736;9.218;2022-10-14T09:32:25;-23654.63;;;15.42;100.00
29385;BME280;16367;48.736;9.218;2022-10-14T09:34:31;-23659.69;;;15.58;100.00
29385;BME280;16367;48.736;9.218;2022-10-14T09:36:36;-23665.81;;;15.78;100.00
29385;BME280;16367;48.736;9.218;2022-10-14T09:38:38;-23655.09;;;15.43;100.00
29385;BME280;16367;48.736;9.218;2022-10-14T09:40:42;-23667.88;;;15.84;100.00
29385;BME280;16367;48.736;9.218;2022-10-14T09:42:50;-23660.47;;;15.60;100.00
29385;BME280;16367;48.736;9.218;2022-10-14T09:45:05;-23647.53;;;15.19;100.00
29385;BME280;16367;48.736;9.218;2022-10-14T09:47:11;-23657.47;;;15.51;100.00
29385;BME280;16367;48.736;9.218;2022-10-14T09:49:16;-23655.91;;;15.46;100.00
29385;BME280;16367;48.736;9.218;2022-10-14T09:51:22;-23653.38;;;15.38;100.00
29385;BME280;16367;48.736;9.218;2022-10-14T09:53:28;-23664.09;;;15.72;100.00
29385;BME280;16367;48.736;9.218;2022-10-14T09:55:32;-23666.16;;;15.79;100.00
29385;BME280;16367;48.736;9.218;2022-10-14T09:57:35;-23667.88;;;15.84;100.00
29385;BME280;16367;48.736;9.218;2022-10-14T09:59:49;-23653.38;;;15.38;100.00
29385;BME280;16367;48.736;9.218;2022-10-14T10:01:55;-23667.09;;;15.82;100.00
29385;BME280;16367;48.736;9.218;2022-10-14T10:04:23;-23685.84;;;16.41;100.00
29385;BME280;16367;48.736;9.218;2022-10-14T10:06:27;-23689.63;;;16.54;100.00
29385;BME280;16367;48.736;9.218;2022-10-14T10:08:31;-23676.69;;;16.12;100.00
29385;BME280;16367;48.736;9.218;2022-10-14T10:10:33;-23689.47;;;16.53;100.00
29385;BME280;16367;48.736;9.218;2022-10-14T10:12:36;-23699.06;;;16.84;100.00
29385;BME280;16367;48.736;9.218;2022-10-14T10:14:54;-23699.88;;;16.86;100.00
29385;BME280;16367;48.736;9.218;2022-10-14T10:17:14;-23684.13;;;16.36;100.00
29385;BME280;16367;48.736;9.218;2022-10-14T10:19:23;-23685.53;;;16.40;100.00
29385;BME280;16367;48.736;9.218;2022-10-14T10:21:29;-23694.81;;;16.70;100.00
29385;BME280;16367;48.736;9.218;2022-10-14T10:23:33;-23688.22;;;16.49;100.00
29385;BME280;16367;48.736;9.218;2022-10-14T10:25:36;-23684.41;;;16.37;100.00
29385;BME280;16367;48.736;9.218;2022-10-14T10:27:40;-23690.88;;;16.58;100.00
29385;BME280;16367;48.736;9.218;2022-10-14T10:29:45;-23697.34;;;16.78;100.00
29385;BME280;16367;48.736;9.218;2022-10-14T10:31:55;-23700.81;;;16.89;100.00
29385;BME280;16367;48.736;9.218;2022-10-14T10:34:11;-23706.00;;;17.06;98.89
29385;BME280;16367;48.736;9.218;2022-10-14T10:36:21;-23674.03;;;16.04;100.00
29385;BME280;16367;48.736;9.218;2022-10-14T10:38:31;-23680.00;;;16.23;100.00
29385;BME280;16367;48.736;9.218;2022-10-14T10:40:38;-23686.94;;;16.45;100.00
29385;BME280;16367;48.736;9.218;2022-10-14T10:42:49;-23686.47;;;16.43;100.00
29385;BME280;16367;48.736;9.218;2022-10-14T10:45:04;-23680.00;;;16.23;100.00
29385;BME280;16367;48.736;9.218;2022-10-14T10:47:21;-23670.25;;;15.92;100.00
29385;BME280;16367;48.736;9.218;2022-10-14T10:49:42;-23667.88;;;15.84;100.00
29385;BME280;16367;48.736;9.218;2022-10-14T10:51:53;-23674.03;;;16.04;100.00